Fairchance, Pennsylvania
Current Conditions -  °F | °C
As of 4:53 AM on Friday 21 Nov 2014 (Local Time) from KMGW Reporting Station
Clear Clear  
Wind Chill: 18°   Ceiling: Unl
Heat Index: 24°   Visibility: 10mi
Dew Point: 11°   Wind: 5mph
Humidity: 57%   Direction: 240°WSW
Pressure: 30.28"   Gusts: NA
Location:  39.82°N, 79.75°W
Report Text: KMGW 210953Z AUTO 24004KT 10SM CLR M04/M12 A3028 RMK AO2 SLP269 T10441117 TSNO
Loading
Personal Weather Stations






























Interactive Weather Map New forecast layout! Learn more

10-Day Weather Forecast

Advertisements
Track Severe Weather on mobile